Time;durP1;ratioP1;P1;durP2;ratioP2;P2;SDS_P1;SDS_P2;PMS_P1;PMS_P2;Temp;Humidity;BMP_temperature;BMP_pressure;BME280_temperature;BME280_humidity;BME280_pressure;Samples;Min_cycle;Max_cycle;Signal;HPM_P1;HPM_P2
2021/11/16 00:01:01;;;;;;;36.15;21.90;;;;;;;8.69;77.24;100962.69;5029684;28;20953;-81
2021/11/16 00:03:26;;;;;;;32.60;21.30;;;;;;;8.68;77.61;100966.47;5030415;28;20476;-82
2021/11/16 00:05:52;;;;;;;31.13;20.77;;;;;;;8.66;77.96;100960.44;5026115;28;20492;-81
2021/11/16 00:08:17;;;;;;;35.10;21.00;;;;;;;8.62;78.31;100967.34;5032731;28;20472;-81
2021/11/16 00:10:42;;;;;;;32.60;21.17;;;;;;;8.59;79.08;100969.66;5032412;28;20411;-82
2021/11/16 00:13:10;;;;;;;35.87;21.27;;;;;;;8.61;78.83;100965.69;5030915;28;20473;-82
2021/11/16 00:15:38;;;;;;;33.50;21.40;;;;;;;8.61;78.28;100967.53;5030569;28;20418;-82
2021/11/16 00:18:03;;;;;;;33.10;21.35;;;;;;;8.62;77.84;100961.94;5032447;28;20782;-81
2021/11/16 00:20:31;;;;;;;34.37;21.67;;;;;;;8.65;78.11;100961.50;5030298;28;20423;-82
2021/11/16 00:22:57;;;;;;;34.00;21.92;;;;;;;8.63;78.30;100963.56;5030588;28;20415;-82
2021/11/16 00:25:31;;;;;;;34.50;21.53;;;;;;;8.62;78.34;100955.69;5028937;28;20905;-82
2021/11/16 00:27:56;;;;;;;32.47;21.17;;;;;;;8.64;78.50;100959.00;5023591;28;20750;-82
2021/11/16 00:30:22;;;;;;;38.00;22.60;;;;;;;8.67;78.10;100955.84;5033312;28;20400;-82
2021/11/16 00:32:47;;;;;;;35.20;21.92;;;;;;;8.68;77.79;100952.13;5032126;28;20425;-81
2021/11/16 00:35:13;;;;;;;33.07;21.73;;;;;;;8.68;77.82;100955.66;5021160;28;20434;-82
2021/11/16 00:37:39;;;;;;;35.33;22.00;;;;;;;8.69;77.64;100959.97;5032951;28;20395;-81
2021/11/16 00:40:08;;;;;;;34.60;21.40;;;;;;;8.62;78.52;100961.94;5029170;28;20490;-82
2021/11/16 00:42:34;;;;;;;35.58;21.90;;;;;;;8.61;78.21;100965.69;5031770;28;20478;-82
2021/11/16 00:44:59;;;;;;;34.73;22.27;;;;;;;8.65;78.32;100966.06;5026919;28;20439;-82
2021/11/16 00:47:24;;;;;;;33.37;21.80;;;;;;;8.64;78.04;100959.84;5018957;28;20895;-82
2021/11/16 00:49:51;;;;;;;33.40;21.00;;;;;;;8.65;77.86;100964.19;5030948;28;20415;-81
2021/11/16 00:52:17;;;;;;;33.70;21.58;;;;;;;8.65;77.52;100958.78;5031752;28;20419;-82
2021/11/16 00:54:43;;;;;;;32.55;21.45;;;;;;;8.63;77.74;100965.44;5031134;28;20437;-82
2021/11/16 00:57:08;;;;;;;35.03;20.70;;;;;;;8.62;77.53;100971.91;5030172;28;20407;-82
2021/11/16 00:59:33;;;;;;;35.20;22.10;;;;;;;8.62;78.08;100967.34;5027373;28;20492;-81
2021/11/16 01:01:59;;;;;;;32.05;21.15;;;;;;;8.64;77.30;100978.75;5022655;28;20417;-82
2021/11/16 01:04:26;;;;;;;38.43;21.53;;;;;;;8.64;76.54;100978.75;5032257;28;20910;-82
2021/11/16 01:06:52;;;;;;;34.33;21.52;;;;;;;8.66;76.94;100975.84;5032631;28;20782;-82
2021/11/16 01:09:17;;;;;;;38.07;21.90;;;;;;;8.60;76.36;100980.22;5029393;28;20532;-82
2021/11/16 01:11:43;;;;;;;32.90;21.83;;;;;;;8.58;76.38;100978.78;5031046;28;20608;-82
2021/11/16 01:14:08;;;;;;;35.20;22.50;;;;;;;8.60;76.47;100976.69;5028624;28;20447;-82
2021/11/16 01:16:33;;;;;;;34.47;21.27;;;;;;;8.56;75.65;100979.00;5030569;28;20753;-82
2021/11/16 01:19:00;;;;;;;30.35;20.23;;;;;;;8.58;75.73;100973.38;5032126;28;20403;-82
2021/11/16 01:21:26;;;;;;;34.75;20.80;;;;;;;8.59;76.38;100973.19;5026241;28;20473;-82
2021/11/16 01:23:51;;;;;;;35.43;22.33;;;;;;;8.54;76.08;100972.16;5029690;28;20801;-82
2021/11/16 01:26:16;;;;;;;32.63;22.43;;;;;;;8.46;76.25;100969.75;5030897;28;20641;-81
2021/11/16 01:28:42;;;;;;;37.90;22.45;;;;;;;8.48;76.52;100970.34;5031943;28;20391;-82
2021/11/16 01:31:08;;;;;;;35.10;20.83;;;;;;;8.48;76.47;100975.75;5027987;28;20484;-82
2021/11/16 01:33:42;;;;;;;34.90;21.53;;;;;;;8.49;76.39;100978.25;5030082;28;20403;-82
2021/11/16 01:36:10;;;;;;;33.85;20.80;;;;;;;8.52;75.92;100976.97;5030652;28;20390;-82
2021/11/16 01:38:36;;;;;;;34.28;21.77;;;;;;;8.48;76.08;100979.28;5029310;28;20461;-82
2021/11/16 01:41:01;;;;;;;35.57;21.43;;;;;;;8.48;76.25;100975.75;5024578;28;20499;-82
2021/11/16 01:43:27;;;;;;;32.57;21.13;;;;;;;8.45;76.30;100974.31;5029928;28;20985;-82
2021/11/16 01:45:52;;;;;;;33.23;21.57;;;;;;;8.42;76.40;100966.66;5029291;28;20415;-82
2021/11/16 01:48:18;;;;;;;32.90;22.13;;;;;;;8.47;76.05;100977.63;5030357;28;20742;-81
2021/11/16 01:50:45;;;;;;;34.28;22.25;;;;;;;8.53;75.51;100976.72;5029083;28;20418;-82
2021/11/16 01:53:11;;;;;;;33.47;21.67;;;;;;;8.55;75.20;100965.72;5028393;28;20906;-82
2021/11/16 01:55:38;;;;;;;31.95;21.08;;;;;;;8.54;75.73;100967.59;5028061;28;20426;-82
2021/11/16 01:58:03;;;;;;;34.35;21.58;;;;;;;8.52;76.00;100971.56;5030648;28;20434;-82
2021/11/16 02:00:34;;;;;;;33.03;20.87;;;;;;;8.52;75.53;100967.00;5026670;28;20428;-82
2021/11/16 02:03:00;;;;;;;33.83;21.58;;;;;;;8.48;75.82;100968.47;5021587;28;20501;-81
2021/11/16 02:05:57;;;;;;;34.27;21.00;;;;;;;8.48;76.15;100968.47;5029265;28;20427;-82
2021/11/16 02:08:24;;;;;;;33.15;21.08;;;;;;;8.47;76.29;100958.72;5015583;28;20403;-82
2021/11/16 02:10:52;;;;;;;34.63;22.52;;;;;;;8.45;76.50;100957.28;5028512;28;20420;-81
2021/11/16 02:13:20;;;;;;;33.85;21.05;;;;;;;8.42;76.68;100958.56;5031420;28;20391;-81
2021/11/16 02:15:47;;;;;;;37.50;21.15;;;;;;;8.45;76.87;100954.56;5035717;28;20403;-82
2021/11/16 02:18:13;;;;;;;33.03;21.30;;;;;;;8.44;76.38;100950.22;5028620;28;20442;-82
2021/11/16 02:20:42;;;;;;;37.08;22.73;;;;;;;8.45;77.10;100947.31;5027928;28;20469;-81
2021/11/16 02:23:08;;;;;;;36.67;21.92;;;;;;;8.48;76.89;100948.75;5027972;28;20411;-82
2021/11/16 02:25:34;;;;;;;36.50;22.13;;;;;;;8.45;76.73;100952.72;5031050;28;20402;-81
2021/11/16 02:28:01;;;;;;;34.70;22.42;;;;;;;8.39;76.53;100945.50;5029702;28;20414;-82
2021/11/16 02:30:27;;;;;;;35.30;21.88;;;;;;;8.44;77.10;100945.66;5025469;28;20407;-81
2021/11/16 02:32:53;;;;;;;34.93;23.10;;;;;;;8.49;77.09;100950.41;5027539;28;20465;-81
2021/11/16 02:35:21;;;;;;;35.92;22.52;;;;;;;8.51;76.65;100943.72;5030178;28;20498;-82
2021/11/16 02:37:47;;;;;;;37.22;22.52;;;;;;;8.50;76.35;100947.47;5029677;28;20415;-82
2021/11/16 02:40:13;;;;;;;35.42;21.90;;;;;;;8.43;76.30;100943.19;5029168;28;20766;-81
2021/11/16 02:42:39;;;;;;;37.67;22.80;;;;;;;8.37;76.16;100934.06;5031196;28;20751;-81
2021/11/16 02:45:07;;;;;;;34.13;22.23;;;;;;;8.33;76.67;100930.97;5028344;28;20417;-82
2021/11/16 02:47:33;;;;;;;32.90;21.37;;;;;;;8.37;76.35;100930.53;5029185;28;20415;-81
2021/11/16 02:49:58;;;;;;;36.80;22.67;;;;;;;8.32;76.55;100936.59;5029213;28;20826;-81
2021/11/16 02:52:23;;;;;;;36.97;22.50;;;;;;;8.34;76.29;100932.63;5030170;28;20395;-82
2021/11/16 02:54:51;;;;;;;33.72;21.17;;;;;;;8.38;76.03;100929.50;5028082;28;20430;-81
2021/11/16 02:57:16;;;;;;;35.08;21.90;;;;;;;8.41;75.45;100923.66;5028558;28;20904;-81
2021/11/16 02:59:42;;;;;;;34.37;20.60;;;;;;;8.41;75.15;100921.78;5026601;28;20422;-81
2021/11/16 03:02:09;;;;;;;34.42;21.48;;;;;;;8.44;75.55;100926.75;5027771;28;20755;-81
2021/11/16 03:04:34;;;;;;;35.58;21.55;;;;;;;8.46;76.07;100924.66;5030625;28;20423;-81
2021/11/16 03:07:02;;;;;;;35.53;21.90;;;;;;;8.43;76.01;100916.97;5029840;28;21012;-82
2021/11/16 03:09:30;;;;;;;34.05;20.23;;;;;;;8.35;75.88;100919.97;5027747;28;20477;-82
2021/11/16 03:12:00;;;;;;;34.05;21.48;;;;;;;8.34;76.15;100921.81;5030914;28;20410;-82
2021/11/16 03:14:27;;;;;;;36.03;22.87;;;;;;;8.43;76.05;100921.56;5030037;28;20951;-81
2021/11/16 03:16:54;;;;;;;34.50;21.93;;;;;;;8.46;76.12;100923.84;5029790;28;20410;-81
2021/11/16 03:19:20;;;;;;;35.30;21.95;;;;;;;8.42;76.44;100915.34;5031226;28;20809;-81
2021/11/16 03:21:54;;;;;;;36.20;21.55;;;;;;;8.45;75.87;100914.91;5024911;28;20403;-82
2021/11/16 03:24:23;;;;;;;37.28;21.95;;;;;;;8.37;76.06;100915.16;5033408;28;20425;-82
2021/11/16 03:26:49;;;;;;;36.43;23.27;;;;;;;8.34;76.21;100908.31;5022579;28;20411;-81
2021/11/16 03:29:18;;;;;;;36.28;22.13;;;;;;;8.33;76.04;100905.88;5031195;28;20415;-81
2021/11/16 03:31:52;;;;;;;37.00;22.70;;;;;;;8.36;75.97;100904.59;5025559;28;20484;-82
2021/11/16 03:34:17;;;;;;;38.22;23.08;;;;;;;8.40;76.51;100908.50;5031054;28;20430;-81
2021/11/16 03:36:43;;;;;;;35.97;22.47;;;;;;;8.43;76.65;100898.06;5033086;28;20400;-81
2021/11/16 03:39:08;;;;;;;35.22;22.30;;;;;;;8.45;76.78;100897.84;5026043;28;20421;-81
2021/11/16 03:41:34;;;;;;;36.45;22.58;;;;;;;8.40;75.93;100892.31;5031356;28;20449;-81
2021/11/16 03:44:00;;;;;;;33.87;21.87;;;;;;;8.37;76.26;100898.13;5032778;28;20802;-81
2021/11/16 03:46:25;;;;;;;38.05;21.48;;;;;;;8.38;76.67;100895.22;5031286;28;20502;-81
2021/11/16 03:48:51;;;;;;;34.53;21.23;;;;;;;8.43;75.45;100891.88;5031207;28;20410;-81
2021/11/16 03:51:17;;;;;;;35.28;21.17;;;;;;;8.46;75.68;100896.81;5031866;28;20969;-81
2021/11/16 03:53:43;;;;;;;34.90;21.20;;;;;;;8.45;76.47;100893.28;5031743;28;20395;-81
2021/11/16 03:56:08;;;;;;;36.97;23.17;;;;;;;8.45;76.85;100889.75;5031138;28;20890;-81
2021/11/16 03:58:35;;;;;;;36.57;20.90;;;;;;;8.45;76.57;100900.56;5031161;28;20450;-82
2021/11/16 04:01:03;;;;;;;34.90;21.13;;;;;;;8.47;76.45;100888.47;5031138;28;20496;-81
2021/11/16 04:03:34;;;;;;;35.40;20.45;;;;;;;8.45;75.99;100887.88;5030211;28;20442;-82
2021/11/16 04:06:00;;;;;;;32.63;19.90;;;;;;;8.41;75.61;100888.53;5030065;28;20411;-81
2021/11/16 04:08:25;;;;;;;34.13;20.70;;;;;;;8.40;75.86;100893.09;5032983;28;20393;-81
2021/11/16 04:10:51;;;;;;;30.83;20.03;;;;;;;8.40;76.85;100886.91;5033115;28;20441;-81
2021/11/16 04:13:17;;;;;;;34.50;21.92;;;;;;;8.46;77.27;100892.25;5032206;28;20394;-82
2021/11/16 04:15:46;;;;;;;35.83;21.00;;;;;;;8.44;77.21;100898.91;5030632;28;20893;-82
2021/11/16 04:18:11;;;;;;;31.88;20.55;;;;;;;8.42;77.50;100901.00;5031518;28;20758;-81
2021/11/16 04:20:39;;;;;;;36.77;21.40;;;;;;;8.41;77.27;100897.47;5030561;28;20426;-81
2021/11/16 04:23:07;;;;;;;36.60;21.55;;;;;;;8.41;76.97;100900.16;5033275;28;20414;-81
2021/11/16 04:25:33;;;;;;;33.63;22.05;;;;;;;8.40;77.44;100903.09;5031026;28;20407;-82
2021/11/16 04:28:00;;;;;;;40.38;23.02;;;;;;;8.40;77.07;100903.09;5030571;28;20457;-81
2021/11/16 04:30:27;;;;;;;36.00;21.60;;;;;;;8.39;77.55;100896.88;5030265;28;20498;-82
2021/11/16 04:32:53;;;;;;;40.78;24.08;;;;;;;8.39;77.77;100894.19;5030752;28;20411;-81
2021/11/16 04:35:19;;;;;;;36.15;20.88;;;;;;;8.40;76.97;100892.31;5032319;28;20500;-81
2021/11/16 04:37:47;;;;;;;34.38;21.40;;;;;;;8.39;77.06;100891.47;5027043;28;20502;-81
2021/11/16 04:40:16;;;;;;;36.97;23.00;;;;;;;8.39;77.29;100888.78;5031180;28;20438;-82
2021/11/16 04:42:42;;;;;;;35.63;22.00;;;;;;;8.39;77.76;100880.66;5031951;28;20441;-82
2021/11/16 04:45:12;;;;;;;36.58;21.58;;;;;;;8.40;77.20;100885.00;5032755;28;20789;-81
2021/11/16 04:47:47;;;;;;;37.60;21.42;;;;;;;8.38;76.54;100884.41;5029524;28;20889;-81
2021/11/16 04:50:26;;;;;;;34.80;21.48;;;;;;;8.40;76.99;100881.50;5031396;28;20418;-81
2021/11/16 04:53:06;;;;;;;33.83;21.50;;;;;;;8.40;77.14;100887.69;5026917;28;20466;-81
2021/11/16 04:55:46;;;;;;;37.13;22.17;;;;;;;8.43;76.84;100886.47;5018433;28;20387;-82
2021/11/16 05:03:52;;;;;;;38.90;23.13;;;;;;;8.41;78.15;100891.25;5032475;28;20406;-82
2021/11/16 05:06:17;;;;;;;36.55;22.73;;;;;;;8.42;77.63;100887.50;5026568;28;20436;-82
2021/11/16 05:08:45;;;;;;;38.95;23.42;;;;;;;8.42;77.80;100893.72;5032501;28;20387;-82
2021/11/16 05:11:11;;;;;;;38.45;22.67;;;;;;;8.41;78.03;100897.47;5023357;28;20441;-81
2021/11/16 05:13:38;;;;;;;39.83;23.33;;;;;;;8.41;77.82;100897.47;5021191;28;20411;-82
2021/11/16 05:16:06;;;;;;;35.50;22.67;;;;;;;8.41;78.13;100897.47;5018033;28;20436;-82
2021/11/16 05:18:32;;;;;;;39.75;23.65;;;;;;;8.39;78.90;100904.97;5018641;28;20494;-81
2021/11/16 05:20:58;;;;;;;37.80;23.10;;;;;;;8.41;78.05;100902.03;5018730;28;20443;-82
2021/11/16 05:23:23;;;;;;;40.40;23.27;;;;;;;8.41;77.37;100904.75;5019436;28;20980;-82
2021/11/16 05:25:53;;;;;;;40.70;23.75;;;;;;;8.37;77.42;100906.22;5019494;28;20502;-82
2021/11/16 05:28:20;;;;;;;35.47;22.73;;;;;;;8.33;77.61;100901.25;5027694;28;20403;-82
2021/11/16 05:30:46;;;;;;;37.50;23.73;;;;;;;8.31;77.64;100908.75;5019125;28;20502;-82
2021/11/16 05:33:11;;;;;;;41.47;23.50;;;;;;;8.32;77.48;100912.28;5016135;28;20861;-82
2021/11/16 05:35:37;;;;;;;40.10;24.30;;;;;;;8.32;77.78;100913.13;5017840;28;20412;-81
2021/11/16 05:38:02;;;;;;;39.45;23.65;;;;;;;8.32;78.17;100909.59;5019129;28;20480;-81
2021/11/16 05:40:28;;;;;;;37.40;24.57;;;;;;;8.31;78.63;100918.72;5017931;28;20412;-81
2021/11/16 05:42:53;;;;;;;39.07;24.20;;;;;;;8.31;78.27;100916.88;5016618;28;20419;-81
2021/11/16 05:45:19;;;;;;;40.83;23.90;;;;;;;8.32;78.84;100921.22;5016724;28;20403;-81
2021/11/16 05:47:44;;;;;;;43.35;25.38;;;;;;;8.28;78.83;100924.56;5017999;28;20774;-80
2021/11/16 05:50:12;;;;;;;40.92;24.13;;;;;;;8.25;78.91;100912.31;5009819;28;20415;-80
2021/11/16 05:52:38;;;;;;;39.40;23.60;;;;;;;8.26;79.11;100916.69;5006551;28;21004;-82
2021/11/16 05:55:07;;;;;;;42.50;25.17;;;;;;;8.28;79.47;100930.81;5021116;28;20908;-81
2021/11/16 05:57:33;;;;;;;41.92;24.92;;;;;;;8.28;79.24;100925.41;5018456;28;20423;-81
2021/11/16 05:59:58;;;;;;;44.17;26.08;;;;;;;8.32;79.58;100931.19;5020135;28;20420;-82
2021/11/16 06:02:24;;;;;;;40.53;24.93;;;;;;;8.30;79.62;100925.16;5017470;28;20493;-81
2021/11/16 06:04:49;;;;;;;41.23;24.27;;;;;;;8.29;79.72;100929.78;5019343;28;20500;-80
2021/11/16 06:07:14;;;;;;;43.63;25.67;;;;;;;8.32;78.95;100934.72;5019315;28;20407;-81
2021/11/16 06:09:42;;;;;;;43.63;26.90;;;;;;;8.33;78.98;100928.25;5019652;28;20809;-79
2021/11/16 06:12:08;;;;;;;41.97;25.48;;;;;;;8.32;79.22;100934.72;5018219;28;20488;-80
2021/11/16 06:14:33;;;;;;;43.30;26.23;;;;;;;8.33;79.28;100927.47;5020026;28;21017;-81
2021/11/16 06:16:59;;;;;;;41.77;24.87;;;;;;;8.32;79.16;100926.63;5017584;28;20515;-81
2021/11/16 06:19:25;;;;;;;41.22;25.48;;;;;;;8.31;79.81;100929.53;5019847;28;20415;-81
2021/11/16 06:21:52;;;;;;;41.65;26.05;;;;;;;8.30;79.55;100928.69;5025474;28;20425;-81
2021/11/16 06:24:19;;;;;;;44.60;26.42;;;;;;;8.34;79.49;100938.03;5029218;28;21406;-81
2021/11/16 06:26:54;;;;;;;44.05;26.45;;;;;;;8.33;79.23;100939.06;5020969;28;20785;-81
2021/11/16 06:29:40;;;;;;;44.15;25.52;;;;;;;8.34;79.49;100943.44;5020216;28;20414;-81
2021/11/16 06:33:43;;;;;;;46.85;26.10;;;;;;;8.33;79.75;100940.97;5021083;28;20411;-80
2021/11/16 06:36:42;;;;;;;42.53;25.50;;;;;;;8.30;79.84;100936.81;4958895;28;20399;-79
2021/11/16 06:39:48;;;;;;;43.15;25.85;;;;;;;8.31;79.81;100940.34;4952384;28;20417;-81
2021/11/16 06:42:21;;;;;;;45.03;26.33;;;;;;;8.28;79.62;100941.59;4967454;28;20406;-81
2021/11/16 06:44:48;;;;;;;45.58;27.70;;;;;;;8.34;79.57;100946.13;4956762;28;20432;-82
2021/11/16 06:47:14;;;;;;;48.75;27.70;;;;;;;8.35;79.22;100946.97;4980499;28;20406;-81
2021/11/16 06:58:05;;;;;;;52.70;30.63;;;;;;;8.31;79.59;100957.38;4905752;29;20468;-81
2021/11/16 07:04:41;;;;;;;52.03;29.52;;;;;;;8.33;79.89;100962.56;4747088;30;20501;-81
2021/11/16 07:11:03;;;;;;;45.08;27.67;;;;;;;8.35;79.94;100965.88;4780880;29;20432;-82
2021/11/16 07:13:28;;;;;;;44.90;27.08;;;;;;;8.35;79.79;100960.47;4781328;29;20437;-80
2021/11/16 07:17:02;;;;;;;45.53;27.07;;;;;;;8.33;79.72;100970.66;4857586;29;20428;-79
2021/11/16 07:22:33;;;;;;;59.88;39.22;;;;;;;8.31;79.70;100978.97;4890963;29;20468;-80
2021/11/16 07:25:13;;;;;;;52.42;33.42;;;;;;;8.32;80.19;100969.00;5018916;28;20496;-80
2021/11/16 07:27:48;;;;;;;52.80;30.30;;;;;;;8.35;80.15;100979.38;5032505;28;20506;-79
2021/11/16 07:30:44;;;;;;;53.30;29.20;;;;;;;8.33;80.24;100979.56;5030080;28;21851;-79
2021/11/16 07:33:11;;;;;;;52.33;30.30;;;;;;;8.34;80.45;100981.25;5026288;28;20409;-79
2021/11/16 07:42:54;;;;;;;48.00;28.75;;;;;;;8.32;80.51;100975.25;4947128;28;20410;-79
2021/11/16 07:45:38;;;;;;;49.67;29.50;;;;;;;8.33;80.76;100982.28;5006088;28;20413;-80
2021/11/16 07:51:31;;;;;;;51.40;29.17;;;;;;;8.31;80.81;100975.44;4971726;28;20405;-80
2021/11/16 07:53:57;;;;;;;47.23;27.17;;;;;;;8.31;80.68;100978.16;4999035;28;20482;-79
2021/11/16 07:56:24;;;;;;;48.30;27.63;;;;;;;8.33;81.01;100981.47;5029672;28;20757;-80
2021/11/16 07:58:57;;;;;;;53.35;29.38;;;;;;;8.35;81.15;100979.38;5033340;28;20429;-79
2021/11/16 08:01:35;;;;;;;49.17;27.80;;;;;;;8.37;81.07;100988.06;5028008;28;20453;-79
2021/11/16 08:07:06;;;;;;;46.97;28.17;;;;;;;8.34;80.75;100988.50;5025249;28;20414;-79
2021/11/16 08:10:36;;;;;;;47.53;27.95;;;;;;;8.40;80.66;100989.53;5025505;28;20446;-79
2021/11/16 08:13:04;;;;;;;48.65;27.85;;;;;;;8.39;80.70;100988.69;4914813;29;20439;-79
2021/11/16 08:15:30;;;;;;;47.40;28.17;;;;;;;8.40;80.67;100984.94;5015272;28;20425;-79
2021/11/16 08:18:15;;;;;;;49.03;29.15;;;;;;;8.42;80.85;100988.25;5022226;28;20406;-79
2021/11/16 08:20:42;;;;;;;48.67;28.60;;;;;;;8.42;81.28;100996.38;5025761;28;20755;-79
2021/11/16 08:23:08;;;;;;;44.35;27.83;;;;;;;8.42;81.28;100995.53;5031530;28;20460;-79
2021/11/16 08:25:35;;;;;;;48.25;27.40;;;;;;;8.41;80.81;101002.81;5024721;28;20786;-79
2021/11/16 08:28:03;;;;;;;46.72;27.35;;;;;;;8.43;80.68;101000.69;5029565;28;20885;-79
2021/11/16 08:30:28;;;;;;;49.03;27.60;;;;;;;8.48;80.60;100997.34;5026408;28;20481;-79
2021/11/16 08:32:59;;;;;;;46.03;27.70;;;;;;;8.49;80.70;101002.56;5031401;28;20462;-80
2021/11/16 08:35:33;;;;;;;50.17;29.15;;;;;;;8.50;80.47;101012.28;5026807;28;20407;-79
2021/11/16 08:38:05;;;;;;;51.70;29.37;;;;;;;8.54;80.16;101001.88;5024462;28;20920;-79
2021/11/16 08:40:36;;;;;;;47.08;27.77;;;;;;;8.54;80.10;101002.72;5027101;28;20442;-79
2021/11/16 08:43:14;;;;;;;47.92;27.60;;;;;;;8.57;80.26;100996.88;5032715;28;20399;-79
2021/11/16 08:45:46;;;;;;;47.17;28.67;;;;;;;8.55;80.73;100998.97;5029487;28;20456;-77
2021/11/16 08:48:15;;;;;;;55.67;32.35;;;;;;;8.52;80.88;100999.41;5027782;28;20986;-79
2021/11/16 08:50:42;;;;;;;50.17;29.90;;;;;;;8.53;80.81;101002.94;5030557;28;20410;-79
2021/11/16 08:53:21;;;;;;;52.92;30.73;;;;;;;8.57;80.36;100999.56;5027182;28;20773;-79
2021/11/16 08:55:47;;;;;;;49.13;29.48;;;;;;;8.58;80.29;100995.84;5029477;28;20443;-79
2021/11/16 08:58:15;;;;;;;48.20;28.57;;;;;;;8.56;80.17;101005.22;5030473;28;20502;-79
2021/11/16 09:00:49;;;;;;;53.47;29.15;;;;;;;8.52;80.60;101006.69;5031505;28;20493;-79
2021/11/16 09:03:20;;;;;;;54.55;29.00;;;;;;;8.51;80.57;101002.31;5028990;28;20419;-79
2021/11/16 09:05:49;;;;;;;46.50;28.60;;;;;;;8.55;80.74;101006.25;5027762;28;20407;-79
2021/11/16 09:08:26;;;;;;;50.03;28.70;;;;;;;8.61;80.76;100995.41;5021993;28;20842;-79
2021/11/16 09:11:01;;;;;;;53.55;29.23;;;;;;;8.64;80.67;101000.34;5024222;28;20498;-79
2021/11/16 09:13:29;;;;;;;51.00;28.27;;;;;;;8.67;80.41;100999.09;5030307;28;20472;-79
2021/11/16 09:16:04;;;;;;;44.67;26.00;;;;;;;8.68;80.40;100998.03;5027249;28;20513;-79
2021/11/16 09:18:38;;;;;;;47.22;27.10;;;;;;;8.73;80.53;100999.03;5026393;28;20426;-79
2021/11/16 09:21:10;;;;;;;45.37;26.57;;;;;;;8.71;80.11;100994.91;5024470;28;20503;-79
2021/11/16 09:23:41;;;;;;;50.65;28.60;;;;;;;8.57;80.60;100998.75;5026936;28;20830;-78
2021/11/16 09:29:07;;;;;;;52.05;29.88;;;;;;;8.58;81.44;100997.69;5022294;28;20402;-79
2021/11/16 09:31:37;;;;;;;47.60;27.67;;;;;;;8.59;81.04;100994.78;5028439;28;20442;-78
2021/11/16 09:34:05;;;;;;;51.47;27.13;;;;;;;8.62;81.13;100999.75;5024204;28;20794;-78
2021/11/16 09:36:37;;;;;;;44.65;27.85;;;;;;;8.59;81.52;100991.25;5018772;28;20415;-79
2021/11/16 09:39:35;;;;;;;52.30;28.00;;;;;;;8.64;81.17;100994.94;5027881;28;20414;-79
2021/11/16 09:42:04;;;;;;;47.93;27.90;;;;;;;8.67;81.04;100996.38;5015592;28;20516;-79
2021/11/16 09:44:34;;;;;;;45.00;26.58;;;;;;;8.66;80.57;100984.75;5029468;28;20466;-80
2021/11/16 09:47:33;;;;;;;47.22;26.70;;;;;;;8.68;80.96;100995.34;5030884;28;20403;-79
2021/11/16 09:50:21;;;;;;;45.40;25.65;;;;;;;8.60;81.19;100990.19;5025313;28;20394;-79
2021/11/16 09:52:55;;;;;;;41.55;25.60;;;;;;;8.54;81.17;100991.91;5027614;28;20415;-79
2021/11/16 09:55:23;;;;;;;47.53;28.13;;;;;;;8.54;81.40;100989.22;5029007;28;20411;-79
2021/11/16 09:57:52;;;;;;;48.13;27.40;;;;;;;8.56;81.67;100994.41;5028982;28;20958;-79
2021/11/16 10:00:18;;;;;;;48.35;28.98;;;;;;;8.56;81.80;100991.72;5024285;28;20415;-79
2021/11/16 10:02:47;;;;;;;46.88;27.55;;;;;;;8.55;81.82;100992.75;5029073;28;20781;-79
2021/11/16 10:05:19;;;;;;;47.47;27.02;;;;;;;8.53;81.28;100994.84;5024910;28;20433;-78
2021/11/16 10:07:51;;;;;;;46.15;26.55;;;;;;;8.52;81.61;100987.78;5030992;28;20936;-79
2021/11/16 10:10:19;;;;;;;47.53;26.50;;;;;;;8.51;81.95;100991.50;5026251;28;20417;-78
2021/11/16 10:12:51;;;;;;;46.33;26.88;;;;;;;8.51;82.16;100986.13;5027615;28;20414;-79
2021/11/16 10:15:19;;;;;;;52.92;27.13;;;;;;;8.50;81.67;100989.84;5028686;28;20411;-79
2021/11/16 10:17:47;;;;;;;44.03;25.60;;;;;;;8.49;81.91;100988.22;5029935;28;20805;-79
2021/11/16 10:20:15;;;;;;;42.28;25.90;;;;;;;8.50;81.95;100987.97;5028480;28;20425;-79
2021/11/16 10:22:42;;;;;;;43.17;25.20;;;;;;;8.51;81.91;100986.13;5028058;28;20468;-79
2021/11/16 10:25:29;;;;;;;45.30;25.85;;;;;;;8.50;81.99;100998.78;5026410;28;20426;-79
2021/11/16 10:27:59;;;;;;;46.65;27.08;;;;;;;8.47;81.61;100980.31;5023960;28;20893;-79
2021/11/16 10:30:26;;;;;;;44.45;27.15;;;;;;;8.44;81.74;100996.97;5031000;28;20967;-79
2021/11/16 10:33:21;;;;;;;48.03;27.60;;;;;;;8.44;81.86;100983.47;5028991;28;20434;-79
2021/11/16 10:39:08;;;;;;;43.83;25.38;;;;;;;8.42;82.01;100988.25;5025720;28;20457;-78
2021/11/16 10:41:37;;;;;;;41.90;25.60;;;;;;;8.41;82.07;100983.91;5011010;28;20421;-79
2021/11/16 10:44:09;;;;;;;43.80;25.35;;;;;;;8.45;81.95;100973.50;5023398;28;20427;-79
2021/11/16 10:46:43;;;;;;;45.33;24.33;;;;;;;8.52;81.82;100979.69;5019899;28;20484;-78
2021/11/16 10:49:15;;;;;;;41.45;25.02;;;;;;;8.59;81.28;100977.75;5011945;28;20502;-79
2021/11/16 10:52:23;;;;;;;41.38;25.92;;;;;;;8.71;80.94;100974.13;5027681;28;20414;-77
2021/11/16 10:54:57;;;;;;;44.00;25.50;;;;;;;8.77;80.73;100977.81;5009744;28;21040;-78
2021/11/16 10:57:22;;;;;;;43.53;26.15;;;;;;;8.83;81.03;100976.91;5006779;28;20438;-78
2021/11/16 10:59:57;;;;;;;41.43;26.40;;;;;;;8.86;80.71;100977.31;5009131;28;20500;-79
2021/11/16 11:02:23;;;;;;;51.20;31.35;;;;;;;8.91;80.73;100976.66;5007855;28;20430;-78
2021/11/16 11:04:49;;;;;;;41.20;25.67;;;;;;;8.91;80.47;100978.53;5010411;28;20531;-79
2021/11/16 11:07:15;;;;;;;44.07;25.70;;;;;;;8.87;80.56;100972.72;5021093;28;20422;-79
2021/11/16 11:09:41;;;;;;;49.83;28.50;;;;;;;8.86;80.69;100965.66;5009793;28;21100;-78
2021/11/16 11:12:23;;;;;;;48.28;26.70;;;;;;;8.90;80.43;100957.94;5006492;28;20486;-78
2021/11/16 11:14:54;;;;;;;44.10;26.08;;;;;;;8.94;80.04;100956.47;5009061;28;20932;-78
2021/11/16 11:17:31;;;;;;;43.40;27.17;;;;;;;8.97;80.39;100959.53;5012477;28;20422;-79
2021/11/16 11:20:06;;;;;;;41.58;26.98;;;;;;;8.95;80.13;100958.94;5007894;28;20403;-79
2021/11/16 11:22:36;;;;;;;45.15;26.85;;;;;;;8.93;80.50;100955.63;5012279;28;20402;-79
2021/11/16 11:27:41;;;;;;;45.42;27.17;;;;;;;8.94;80.29;100949.19;5002920;28;20424;-79
2021/11/16 11:30:14;;;;;;;43.33;25.65;;;;;;;8.96;80.09;100947.06;5007026;28;20494;-79
2021/11/16 11:35:39;;;;;;;46.33;26.38;;;;;;;8.93;79.71;100934.00;4991448;28;20505;-80
2021/11/16 11:38:13;;;;;;;48.13;27.77;;;;;;;8.96;79.74;100940.88;5001055;28;20935;-79
2021/11/16 11:40:40;;;;;;;46.22;28.00;;;;;;;8.96;79.87;100932.75;5003615;28;20834;-80
2021/11/16 11:43:17;;;;;;;40.92;24.10;;;;;;;9.00;79.59;100933.94;5005375;28;20765;-79
2021/11/16 11:45:45;;;;;;;45.13;26.13;;;;;;;9.11;79.59;100934.03;5003505;28;20406;-79
2021/11/16 11:48:19;;;;;;;46.03;26.48;;;;;;;9.07;79.35;100938.25;5004422;28;20407;-79
2021/11/16 11:50:50;;;;;;;39.15;24.77;;;;;;;9.06;79.08;100935.75;5006030;28;20442;-80
2021/11/16 11:53:21;;;;;;;43.28;25.58;;;;;;;9.07;79.26;100932.84;5002297;28;23633;-80
2021/11/16 11:55:53;;;;;;;41.22;25.88;;;;;;;9.07;79.41;100927.44;5004258;28;20420;-80
2021/11/16 12:01:40;;;;;;;40.65;25.30;;;;;;;9.08;78.65;100931.78;4999448;28;20425;-79
2021/11/16 12:04:09;;;;;;;40.95;25.90;;;;;;;9.08;79.33;100928.25;4995039;28;20415;-79
2021/11/16 12:06:34;;;;;;;41.10;26.52;;;;;;;9.10;78.99;100932.38;5008131;28;20443;-80
2021/11/16 12:09:00;;;;;;;43.27;25.83;;;;;;;9.06;78.97;100928.47;5010493;28;20844;-81
2021/11/16 12:11:26;;;;;;;44.28;26.08;;;;;;;9.01;79.46;100919.38;5008382;28;20478;-80
2021/11/16 12:13:56;;;;;;;53.90;31.70;;;;;;;9.00;79.09;100918.56;5010194;28;20528;-81
2021/11/16 12:16:55;;;;;;;52.55;31.50;;;;;;;9.00;79.20;100921.25;5008487;28;20447;-80
2021/11/16 12:19:21;;;;;;;42.08;25.58;;;;;;;9.02;79.23;100926.44;5007414;28;20422;-81
2021/11/16 12:21:48;;;;;;;43.30;26.08;;;;;;;8.98;79.10;100922.53;5007844;28;20494;-79
2021/11/16 12:24:30;;;;;;;41.20;26.15;;;;;;;8.98;79.02;100915.25;5005672;28;20425;-80